Time;durP1;ratioP1;P1;durP2;ratioP2;P2;SDS_P1;SDS_P2;PMS_P1;PMS_P2;Temp;Humidity;BMP_temperature;BMP_pressure;BME280_temperature;BME280_humidity;BME280_pressure;Samples;Min_cycle;Max_cycle;Signal;HPM_P1;HPM_P2
2023/01/11 00:00:05;;;;;;;6.70;2.17;;;8.20;1.00;;;;;;5059110;28;20253;-71
2023/01/11 00:02:31;;;;;;;5.73;2.07;;;8.20;1.00;;;;;;5051579;28;20188;-71
2023/01/11 00:04:56;;;;;;;4.97;2.10;;;8.20;1.00;;;;;;5058186;28;20431;-72
2023/01/11 00:07:22;;;;;;;5.13;2.10;;;8.20;1.00;;;;;;5061414;28;20476;-71
2023/01/11 00:09:48;;;;;;;2.20;1.73;;;8.20;1.00;;;;;;5067162;28;20655;-72
2023/01/11 00:12:14;;;;;;;7.60;2.27;;;8.10;1.00;;;;;;5055180;28;20598;-71
2023/01/11 00:14:39;;;;;;;3.83;1.90;;;8.10;1.00;;;;;;5041861;28;20249;-71
2023/01/11 00:17:05;;;;;;;4.27;1.97;;;8.10;1.00;;;;;;5062118;28;20193;-71
2023/01/11 00:19:30;;;;;;;7.40;2.07;;;8.10;1.00;;;;;;5057176;28;20173;-72
2023/01/11 00:21:56;;;;;;;6.43;1.80;;;8.40;1.00;;;;;;5064784;28;20176;-71
2023/01/11 00:24:22;;;;;;;3.93;2.10;;;8.10;1.00;;;;;;5054179;28;20635;-71
2023/01/11 00:26:47;;;;;;;5.07;2.00;;;8.00;1.00;;;;;;5060361;28;20598;-70
2023/01/11 00:29:13;;;;;;;2.70;1.93;;;8.10;1.00;;;;;;5068298;28;20215;-72
2023/01/11 00:31:38;;;;;;;2.83;1.60;;;8.00;1.00;;;;;;5065928;28;20197;-72
2023/01/11 00:34:04;;;;;;;2.87;1.80;;;8.10;1.00;;;;;;5049224;28;20169;-71
2023/01/11 00:36:29;;;;;;;5.63;1.83;;;8.10;1.00;;;;;;5057398;28;20287;-74
2023/01/11 00:38:55;;;;;;;7.33;1.87;;;8.10;1.00;;;;;;5068156;28;20169;-71
2023/01/11 00:49:36;;;;;;;5.93;1.60;;;8.20;1.00;;;;;;5056930;28;21010;-71
2023/01/11 00:52:07;;;;;;;4.63;1.57;;;8.20;1.00;;;;;;5056255;28;20670;-71
2023/01/11 00:54:33;;;;;;;6.20;1.70;;;8.20;1.00;;;;;;5070101;28;20647;-71
2023/01/11 00:56:59;;;;;;;4.40;2.10;;;8.20;1.00;;;;;;5063625;28;20525;-71
2023/01/11 00:59:24;;;;;;;3.87;1.83;;;8.20;1.00;;;;;;5070590;28;20534;-70
2023/01/11 01:01:50;;;;;;;10.33;1.80;;;8.30;1.00;;;;;;5063292;28;20181;-72
2023/01/11 01:04:15;;;;;;;6.50;2.00;;;8.30;1.00;;;;;;5070887;28;20718;-69
2023/01/11 01:06:41;;;;;;;2.33;1.70;;;8.30;1.00;;;;;;5063162;28;20196;-70
2023/01/11 01:09:06;;;;;;;4.10;1.77;;;8.40;1.00;;;;;;5063705;28;20184;-71
2023/01/11 01:11:32;;;;;;;5.57;1.90;;;8.40;1.00;;;;;;5063045;28;20292;-72
2023/01/11 01:16:41;;;;;;;3.57;1.90;;;8.40;1.00;;;;;;5068791;28;20257;-71
2023/01/11 01:19:07;;;;;;;5.20;2.23;;;8.40;1.00;;;;;;5067091;28;20788;-71
2023/01/11 01:21:33;;;;;;;5.30;1.77;;;8.40;1.00;;;;;;5071078;28;20180;-71
2023/01/11 01:23:58;;;;;;;4.03;1.83;;;8.40;1.00;;;;;;5060876;28;20529;-71
2023/01/11 01:26:24;;;;;;;2.60;1.60;;;8.70;1.00;;;;;;5057334;28;20201;-71
2023/01/11 01:28:49;;;;;;;2.67;1.87;;;8.50;1.00;;;;;;5064437;28;20203;-69
2023/01/11 01:31:16;;;;;;;3.23;1.73;;;8.50;1.00;;;;;;5066970;28;20295;-71
2023/01/11 01:33:42;;;;;;;6.53;2.10;;;8.50;1.00;;;;;;5066823;28;20180;-70
2023/01/11 01:36:07;;;;;;;3.73;1.70;;;8.50;1.00;;;;;;5066409;28;20450;-71
2023/01/11 01:38:33;;;;;;;3.83;1.80;;;8.50;1.00;;;;;;5062407;28;20596;-73
2023/01/11 01:40:59;;;;;;;3.53;1.60;;;8.50;1.00;;;;;;5060031;28;20258;-70
2023/01/11 01:43:51;;;;;;;4.20;1.80;;;8.50;1.00;;;;;;5051785;28;20173;-70
2023/01/11 01:46:18;;;;;;;6.93;1.77;;;8.40;1.00;;;;;;5069145;28;20235;-71
2023/01/11 01:48:50;;;;;;;1.73;1.50;;;8.50;1.00;;;;;;5067291;28;20426;-74
2023/01/11 01:51:24;;;;;;;7.53;1.93;;;8.50;1.00;;;;;;5064932;28;20470;-71
2023/01/11 01:53:54;;;;;;;2.40;1.53;;;8.50;1.00;;;;;;5063744;28;21125;-70
2023/01/11 01:56:28;;;;;;;5.63;2.00;;;8.50;1.00;;;;;;5064115;28;20458;-70
2023/01/11 01:58:58;;;;;;;3.80;1.90;;;8.50;1.00;;;;;;5049645;28;20511;-70
2023/01/11 02:04:25;;;;;;;2.50;1.50;;;8.70;1.00;;;;;;5070247;28;20430;-71
2023/01/11 02:06:57;;;;;;;6.10;1.93;;;8.70;1.00;;;;;;5062120;28;20450;-71
2023/01/11 02:09:26;;;;;;;4.60;1.97;;;8.70;1.00;;;;;;5070140;28;20414;-72
2023/01/11 02:11:54;;;;;;;4.23;1.80;;;8.70;1.00;;;;;;5061759;28;20454;-71
2023/01/11 02:14:21;;;;;;;3.40;1.50;;;9.10;1.00;;;;;;5069925;28;20774;-72
2023/01/11 02:16:46;;;;;;;2.43;1.70;;;8.80;1.00;;;;;;5068255;28;20474;-71
2023/01/11 02:20:07;;;;;;;3.00;2.10;;;8.80;1.00;;;;;;5057293;28;20458;-72
2023/01/11 02:22:57;;;;;;;7.10;1.90;;;8.80;1.00;;;;;;4982957;28;20763;-70
2023/01/11 02:25:32;;;;;;;3.37;1.80;;;8.80;1.00;;;;;;5068729;28;20458;-72
2023/01/11 02:28:16;;;;;;;7.90;2.30;;;8.90;1.00;;;;;;5066699;28;20404;-71
2023/01/11 02:30:58;;;;;;;2.60;1.50;;;8.80;1.00;;;;;;5067120;28;20469;-71
2023/01/11 02:34:04;;;;;;;3.33;1.70;;;8.80;1.00;;;;;;5064680;28;20477;-71
2023/01/11 02:36:47;;;;;;;6.73;2.00;;;8.90;1.00;;;;;;5042201;28;20430;-70
2023/01/11 02:39:17;;;;;;;4.63;1.80;;;8.90;1.00;;;;;;5068117;28;20547;-72
2023/01/11 02:45:02;;;;;;;5.47;1.97;;;8.80;1.00;;;;;;5064966;28;20464;-71
2023/01/11 02:47:38;;;;;;;3.73;1.90;;;8.80;1.00;;;;;;5061265;28;20497;-71
2023/01/11 02:50:20;;;;;;;5.00;1.83;;;8.90;1.00;;;;;;5057692;28;20455;-71
2023/01/11 02:52:50;;;;;;;3.73;1.80;;;8.80;1.00;;;;;;5049633;28;20839;-71
2023/01/11 02:55:20;;;;;;;5.30;2.00;;;9.00;1.00;;;;;;5058449;28;20781;-72
2023/01/11 02:57:47;;;;;;;4.37;1.90;;;8.80;1.00;;;;;;5057953;28;20430;-71
2023/01/11 03:00:15;;;;;;;3.73;1.70;;;8.80;1.00;;;;;;5064910;28;20520;-71
2023/01/11 03:02:41;;;;;;;3.57;1.90;;;8.80;1.00;;;;;;5058531;28;20427;-71
2023/01/11 03:05:14;;;;;;;2.57;1.60;;;8.90;1.00;;;;;;5061168;28;20428;-72
2023/01/11 03:07:48;;;;;;;2.67;1.80;;;9.00;1.00;;;;;;5066726;28;20184;-71
2023/01/11 03:10:36;;;;;;;3.73;1.90;;;9.00;1.00;;;;;;5064464;28;20763;-71
2023/01/11 03:13:46;;;;;;;4.77;1.80;;;9.10;1.00;;;;;;5050868;28;20460;-71
2023/01/11 03:16:24;;;;;;;4.63;2.07;;;9.10;1.00;;;;;;5059290;28;20461;-71
2023/01/11 03:19:04;;;;;;;11.70;2.10;;;9.00;1.00;;;;;;5059763;28;20408;-72
2023/01/11 03:21:42;;;;;;;3.13;1.77;;;9.00;1.00;;;;;;5068237;28;20425;-71
2023/01/11 03:24:29;;;;;;;4.13;1.70;;;9.00;1.00;;;;;;5064911;28;20750;-72
2023/01/11 03:27:01;;;;;;;1.90;1.60;;;9.10;1.00;;;;;;5063218;28;20509;-71
2023/01/11 03:29:48;;;;;;;8.70;3.00;;;9.10;1.00;;;;;;5060098;28;20493;-71
2023/01/11 03:32:44;;;;;;;2.07;1.63;;;9.10;1.00;;;;;;5058195;28;20453;-71
2023/01/11 03:35:51;;;;;;;3.37;1.77;;;9.10;1.00;;;;;;5063425;28;20418;-70
2023/01/11 03:38:28;;;;;;;3.57;1.73;;;9.20;1.00;;;;;;5061034;28;20421;-71
2023/01/11 03:41:08;;;;;;;2.93;1.63;;;9.20;1.00;;;;;;5064653;28;20414;-73
2023/01/11 03:43:37;;;;;;;5.20;2.03;;;9.30;1.00;;;;;;5052883;28;20928;-71
2023/01/11 03:46:08;;;;;;;4.80;1.70;;;9.30;1.00;;;;;;5059474;28;20987;-72
2023/01/11 03:48:48;;;;;;;3.53;1.60;;;9.30;1.00;;;;;;5060476;28;20426;-71
2023/01/11 03:51:19;;;;;;;5.50;1.70;;;9.30;1.00;;;;;;5062974;28;20536;-71
2023/01/11 03:53:48;;;;;;;1.70;1.47;;;9.40;1.00;;;;;;5059915;28;20480;-74
2023/01/11 03:56:18;;;;;;;2.03;1.37;;;9.40;1.00;;;;;;5059973;28;20435;-71
2023/01/11 03:58:44;;;;;;;3.40;1.37;;;9.50;1.00;;;;;;5060299;28;20462;-74
2023/01/11 04:01:11;;;;;;;3.73;1.60;;;9.50;1.00;;;;;;5044125;28;20470;-71
2023/01/11 04:03:36;;;;;;;2.67;1.50;;;9.50;1.00;;;;;;5064786;28;20189;-72
2023/01/11 04:06:02;;;;;;;2.43;1.40;;;9.60;1.00;;;;;;5063999;28;20472;-71
2023/01/11 04:08:28;;;;;;;2.67;1.30;;;9.70;1.00;;;;;;5057184;28;20192;-71
2023/01/11 04:10:53;;;;;;;2.13;1.30;;;9.70;1.00;;;;;;5067061;28;20283;-73
2023/01/11 04:13:19;;;;;;;8.20;1.83;;;9.70;1.00;;;;;;5060427;28;20176;-72
2023/01/11 04:15:44;;;;;;;4.70;1.83;;;9.80;1.00;;;;;;5058363;28;20713;-72
2023/01/11 04:18:10;;;;;;;2.80;1.30;;;9.80;1.00;;;;;;5045379;28;20666;-70
2023/01/11 04:20:38;;;;;;;2.63;1.50;;;9.80;1.00;;;;;;5054685;28;20615;-69
2023/01/11 04:23:04;;;;;;;3.27;1.70;;;9.80;1.00;;;;;;5068745;28;20415;-71
2023/01/11 04:25:30;;;;;;;3.53;1.40;;;9.80;1.00;;;;;;5055780;28;20454;-72
2023/01/11 04:27:56;;;;;;;2.03;1.10;;;9.90;1.00;;;;;;5060714;28;20419;-72
2023/01/11 04:30:21;;;;;;;3.20;1.40;;;9.80;1.00;;;;;;5062094;28;20188;-72
2023/01/11 04:32:47;;;;;;;2.40;1.40;;;9.90;1.00;;;;;;5059732;28;20180;-72
2023/01/11 04:35:12;;;;;;;3.30;1.87;;;9.30;1.00;;;;;;5062550;28;20220;-71
2023/01/11 04:37:38;;;;;;;2.57;1.37;;;9.90;1.00;;;;;;5066233;28;20191;-71
2023/01/11 04:40:04;;;;;;;3.30;1.17;;;9.90;1.00;;;;;;5063288;28;20185;-72
2023/01/11 04:42:29;;;;;;;1.77;1.37;;;9.90;1.00;;;;;;5062633;28;20180;-71
2023/01/11 04:44:55;;;;;;;2.10;1.47;;;10.00;1.00;;;;;;5058438;28;20479;-70
2023/01/11 04:47:22;;;;;;;3.17;1.47;;;10.00;1.00;;;;;;5062747;28;20616;-71
2023/01/11 04:49:48;;;;;;;2.67;1.40;;;10.00;1.00;;;;;;5062926;28;20179;-71
2023/01/11 04:52:16;;;;;;;2.90;1.50;;;10.00;1.00;;;;;;5061404;28;20463;-71
2023/01/11 04:54:42;;;;;;;1.97;1.40;;;10.00;1.00;;;;;;5059850;28;20829;-71
2023/01/11 04:57:12;;;;;;;1.87;1.20;;;10.10;1.00;;;;;;5068996;28;20522;-71
2023/01/11 04:59:37;;;;;;;2.73;1.40;;;10.10;1.00;;;;;;5066339;28;20427;-71
2023/01/11 05:02:03;;;;;;;5.67;1.60;;;10.00;1.00;;;;;;5064181;28;20415;-74
2023/01/11 05:04:28;;;;;;;2.77;1.17;;;10.00;1.00;;;;;;5041809;28;20195;-72
2023/01/11 05:06:54;;;;;;;1.60;1.40;;;9.50;1.00;;;;;;5067172;28;20212;-71
2023/01/11 05:09:20;;;;;;;2.30;1.47;;;10.00;1.00;;;;;;5061074;28;20192;-71
2023/01/11 05:11:46;;;;;;;4.30;1.60;;;9.90;1.00;;;;;;5056568;28;20283;-73
2023/01/11 05:14:13;;;;;;;3.00;1.50;;;9.90;1.00;;;;;;5059818;28;20168;-71
2023/01/11 05:16:38;;;;;;;3.27;1.60;;;9.90;1.60;;;;;;5065901;28;20478;-71
2023/01/11 05:19:05;;;;;;;4.03;1.60;;;10.00;1.70;;;;;;5055462;28;20875;-74
2023/01/11 05:21:33;;;;;;;2.57;1.50;;;9.90;2.80;;;;;;5056361;28;20223;-71
2023/01/11 05:24:01;;;;;;;3.00;1.57;;;9.90;3.70;;;;;;5066716;28;20422;-71
2023/01/11 05:26:29;;;;;;;2.23;1.60;;;9.90;4.90;;;;;;5060172;28;20974;-74
2023/01/11 05:28:57;;;;;;;3.50;1.50;;;9.90;5.00;;;;;;5067128;28;20813;-73
2023/01/11 05:31:24;;;;;;;3.73;1.57;;;9.90;4.70;;;;;;5060938;28;20501;-71
2023/01/11 05:33:49;;;;;;;2.17;1.40;;;10.00;3.70;;;;;;5054612;28;20538;-71
2023/01/11 05:36:17;;;;;;;3.97;1.67;;;10.00;3.70;;;;;;5067191;28;20945;-72
2023/01/11 05:38:45;;;;;;;4.97;1.53;;;10.00;2.10;;;;;;5041666;28;20576;-71
2023/01/11 05:41:10;;;;;;;2.90;1.40;;;10.00;1.00;;;;;;5055973;28;20433;-71
2023/01/11 05:46:22;;;;;;;3.17;1.50;;;10.10;1.10;;;;;;5069727;28;20227;-72
2023/01/11 05:48:47;;;;;;;2.17;1.43;;;10.10;1.00;;;;;;5041953;28;20430;-71
2023/01/11 05:51:13;;;;;;;2.80;1.53;;;10.20;1.00;;;;;;5064776;28;20446;-71
2023/01/11 05:53:38;;;;;;;2.20;1.47;;;10.20;1.00;;;;;;5061882;28;20204;-71
2023/01/11 05:56:04;;;;;;;3.43;1.40;;;10.30;1.00;;;;;;5067178;28;20193;-72
2023/01/11 05:58:29;;;;;;;3.67;1.50;;;10.30;1.00;;;;;;5058458;28;20177;-73
2023/01/11 06:00:55;;;;;;;4.20;1.20;;;10.30;1.00;;;;;;5066359;28;20177;-71
2023/01/11 06:03:22;;;;;;;2.70;1.33;;;10.30;1.00;;;;;;5044477;28;20670;-71
2023/01/11 06:05:48;;;;;;;3.07;1.50;;;10.40;1.00;;;;;;5064425;28;20216;-71
2023/01/11 06:08:14;;;;;;;1.70;1.10;;;10.40;1.00;;;;;;5063023;28;20826;-72
2023/01/11 06:10:40;;;;;;;2.23;1.30;;;10.40;1.00;;;;;;5052641;28;20197;-72
2023/01/11 06:15:50;;;;;;;1.97;1.20;;;10.50;1.00;;;;;;5058831;28;20591;-71
2023/01/11 06:18:16;;;;;;;2.60;1.40;;;10.50;1.00;;;;;;5054126;28;20451;-72
2023/01/11 06:20:41;;;;;;;1.67;1.10;;;10.60;1.00;;;;;;5055934;28;20231;-74
2023/01/11 06:23:07;;;;;;;2.20;1.23;;;10.60;1.00;;;;;;5050907;28;20628;-72
2023/01/11 06:25:36;;;;;;;2.13;1.40;;;10.60;1.00;;;;;;5069425;28;20316;-71
2023/01/11 06:28:03;;;;;;;1.70;1.17;;;10.60;1.00;;;;;;5062541;28;20172;-71
2023/01/11 06:30:29;;;;;;;1.40;1.10;;;10.70;1.00;;;;;;5065719;28;20459;-71
2023/01/11 06:32:54;;;;;;;1.80;1.40;;;10.70;1.00;;;;;;5060972;28;20490;-72
2023/01/11 06:35:20;;;;;;;1.93;1.20;;;10.70;1.00;;;;;;5060280;28;20241;-71
2023/01/11 06:37:46;;;;;;;2.30;1.40;;;10.70;1.00;;;;;;5067564;22;20744;-69
2023/01/11 06:40:12;;;;;;;2.30;1.37;;;10.70;1.00;;;;;;5037568;28;20170;-68
2023/01/11 06:42:38;;;;;;;2.67;1.23;;;10.70;1.00;;;;;;5031750;28;20404;-68
2023/01/11 06:45:04;;;;;;;1.40;1.30;;;10.70;1.00;;;;;;5031229;28;20178;-68
2023/01/11 06:47:29;;;;;;;3.10;1.30;;;10.70;1.00;;;;;;5017822;28;20197;-68
2023/01/11 06:49:55;;;;;;;2.10;1.03;;;10.80;1.00;;;;;;5031103;28;20412;-68
2023/01/11 06:52:20;;;;;;;1.30;1.00;;;10.80;1.00;;;;;;5039331;28;20205;-68
2023/01/11 06:54:46;;;;;;;1.63;1.20;;;10.80;1.00;;;;;;5048976;28;20169;-68
2023/01/11 06:57:11;;;;;;;1.70;1.40;;;10.90;1.00;;;;;;5033388;28;20288;-68
2023/01/11 06:59:38;;;;;;;3.80;1.33;;;10.50;1.00;;;;;;5050745;28;20169;-68
2023/01/11 07:02:04;;;;;;;1.10;0.90;;;11.00;1.00;;;;;;5050229;28;20169;-68
2023/01/11 07:04:30;;;;;;;1.20;1.00;;;11.00;1.00;;;;;;5051024;28;20489;-68
2023/01/11 07:06:56;;;;;;;1.57;0.90;;;11.10;1.00;;;;;;5051041;28;20825;-68
2023/01/11 07:09:22;;;;;;;2.60;1.50;;;11.10;1.00;;;;;;5029792;28;20181;-68
2023/01/11 16:01:19;;;;;;;3.47;2.93;;;9.10;99.90;;;;;;5067163;28;20632;-67
2023/01/11 16:03:44;;;;;;;5.93;3.97;;;9.20;99.90;;;;;;5066133;28;20461;-68
2023/01/11 16:06:17;;;;;;;7.00;4.37;;;9.30;99.90;;;;;;5061001;28;20548;-69
2023/01/11 16:09:23;;;;;;;7.70;4.53;;;9.40;99.90;;;;;;5070042;28;20339;-67
2023/01/11 16:12:01;;;;;;;5.70;4.43;;;9.60;99.90;;;;;;5063838;28;20435;-67
2023/01/11 16:14:45;;;;;;;7.33;5.30;;;9.70;99.90;;;;;;5062785;28;20434;-69
2023/01/11 16:17:12;;;;;;;5.40;3.83;;;9.80;99.90;;;;;;5064869;28;20454;-68
2023/01/11 16:19:43;;;;;;;11.37;9.57;;;9.80;99.90;;;;;;5064483;28;20482;-68
2023/01/11 16:22:21;;;;;;;9.90;5.03;;;9.90;99.90;;;;;;5059189;28;20474;-68
2023/01/11 16:24:51;;;;;;;4.80;3.57;;;9.90;99.90;;;;;;5064448;28;20434;-68
2023/01/11 16:27:29;;;;;;;5.73;2.80;;;10.00;99.90;;;;;;5055520;28;20457;-69
2023/01/11 16:29:55;;;;;;;4.10;1.97;;;10.00;99.90;;;;;;5061418;28;20438;-68
2023/01/11 16:32:28;;;;;;;6.67;2.40;;;10.00;99.00;;;;;;5063207;28;20428;-68
2023/01/11 16:34:54;;;;;;;3.63;2.27;;;10.00;98.90;;;;;;5064464;28;20180;-69
2023/01/11 16:37:26;;;;;;;3.23;2.70;;;10.00;99.90;;;;;;5064947;28;20949;-69
2023/01/11 16:40:12;;;;;;;6.00;2.60;;;10.00;99.90;;;;;;5057149;28;20467;-67
2023/01/11 16:42:57;;;;;;;4.83;2.80;;;10.00;99.90;;;;;;5058939;28;20196;-67
2023/01/11 16:45:36;;;;;;;2.60;2.40;;;10.00;99.90;;;;;;5075630;22;20574;-72
2023/01/11 16:48:14;;;;;;;5.03;2.30;;;9.70;99.40;;;;;;5035789;28;20504;-72
2023/01/11 16:50:47;;;;;;;5.60;3.10;;;10.00;99.90;;;;;;5046611;28;20403;-73
2023/01/11 16:53:14;;;;;;;8.20;2.40;;;10.00;99.00;;;;;;5051545;28;20766;-72
2023/01/11 16:55:53;;;;;;;6.63;3.10;;;9.90;96.30;;;;;;5045617;28;20415;-72
2023/01/11 16:58:30;;;;;;;7.03;2.73;;;9.90;99.40;;;;;;5027802;28;20427;-72
2023/01/11 17:01:02;;;;;;;7.20;2.70;;;9.90;93.70;;;;;;5044861;28;20856;-72
2023/01/11 17:03:51;;;;;;;9.87;2.20;;;9.80;88.40;;;;;;5044197;28;20794;-74
2023/01/11 17:06:21;;;;;;;11.30;2.13;;;9.80;87.90;;;;;;5040009;28;20438;-72
2023/01/11 17:08:53;;;;;;;4.40;2.10;;;9.70;84.30;;;;;;5043152;28;20424;-72
2023/01/11 17:11:41;;;;;;;8.97;1.80;;;9.70;79.00;;;;;;5037783;28;20756;-73
2023/01/11 17:14:30;;;;;;;10.43;2.10;;;9.60;80.50;;;;;;5031642;28;20417;-72
2023/01/11 17:17:01;;;;;;;6.33;2.23;;;9.60;76.30;;;;;;5030594;28;20419;-72
2023/01/11 17:19:29;;;;;;;6.40;2.33;;;9.60;81.70;;;;;;5012679;28;20474;-72
2023/01/11 17:22:05;;;;;;;9.17;2.10;;;9.60;82.40;;;;;;5034429;28;20937;-72
2023/01/11 17:25:00;;;;;;;10.53;2.63;;;9.60;72.70;;;;;;5030957;28;20493;-72
2023/01/11 17:27:43;;;;;;;7.30;2.23;;;9.50;72.60;;;;;;5021892;28;20885;-72
2023/01/11 17:30:12;;;;;;;6.20;2.00;;;9.50;61.50;;;;;;5030600;28;20923;-74
2023/01/11 17:32:41;;;;;;;7.53;3.20;;;9.50;65.50;;;;;;5028160;28;20436;-72
2023/01/11 17:35:16;;;;;;;5.47;3.60;;;9.40;62.50;;;;;;5030317;28;20456;-72
2023/01/11 17:37:47;;;;;;;14.57;4.63;;;9.50;71.10;;;;;;5032454;28;20416;-74
2023/01/11 17:40:23;;;;;;;14.87;4.40;;;9.40;76.30;;;;;;5030658;28;20448;-72
2023/01/11 17:45:34;;;;;;;14.33;5.20;;;9.30;76.90;;;;;;5027171;28;20476;-73
2023/01/11 17:48:11;;;;;;;9.33;4.67;;;9.30;81.30;;;;;;5033419;28;20856;-74
2023/01/11 17:50:46;;;;;;;8.13;4.17;;;9.30;85.10;;;;;;5025453;28;20436;-72
2023/01/11 17:53:11;;;;;;;9.03;4.13;;;9.40;73.80;;;;;;5028978;28;20956;-73
2023/01/11 17:55:53;;;;;;;9.70;3.87;;;9.50;68.30;;;;;;5030654;28;20456;-73
2023/01/11 17:58:32;;;;;;;12.80;4.57;;;9.60;67.70;;;;;;5032525;28;20170;-72
2023/01/11 18:01:06;;;;;;;8.47;3.63;;;9.60;58.90;;;;;;5009429;28;20506;-73
2023/01/11 18:03:55;;;;;;;8.90;4.23;;;9.60;38.70;;;;;;5029835;28;20499;-73
2023/01/11 18:06:39;;;;;;;9.23;3.07;;;9.60;38.60;;;;;;5030799;28;20437;-73
2023/01/11 18:09:17;;;;;;;9.50;3.57;;;9.50;38.50;;;;;;5029274;28;20423;-74
2023/01/11 18:11:43;;;;;;;10.90;3.97;;;9.40;38.40;;;;;;5026363;28;20432;-72
2023/01/11 18:14:24;;;;;;;10.60;4.07;;;9.30;38.30;;;;;;5030696;28;20424;-73
2023/01/11 18:17:01;;;;;;;14.40;4.53;;;9.30;38.30;;;;;;5028140;28;22461;-74
2023/01/11 18:19:39;;;;;;;8.57;2.87;;;9.30;38.30;;;;;;5030426;28;20444;-73
2023/01/11 18:22:28;;;;;;;8.73;2.80;;;9.20;38.20;;;;;;5025790;28;20790;-73
2023/01/11 18:24:55;;;;;;;7.20;2.20;;;9.10;38.10;;;;;;5029095;28;20466;-73
2023/01/11 18:27:32;;;;;;;6.00;2.50;;;9.10;38.20;;;;;;5031821;28;20929;-72
2023/01/11 18:30:05;;;;;;;5.60;2.40;;;9.00;38.00;;;;;;5028251;28;20451;-73
2023/01/11 18:32:36;;;;;;;8.97;2.33;;;9.00;38.00;;;;;;5029216;28;20428;-72
2023/01/11 18:35:02;;;;;;;6.60;2.73;;;8.90;38.00;;;;;;5030474;28;20475;-72
2023/01/11 18:37:27;;;;;;;15.57;3.30;;;8.80;37.90;;;;;;5029403;28;20460;-72
2023/01/11 18:39:53;;;;;;;3.63;2.87;;;8.80;37.90;;;;;;5029588;28;20330;-74
2023/01/11 18:42:23;;;;;;;10.60;3.80;;;8.80;40.60;;;;;;5029008;28;20264;-72
2023/01/11 18:44:48;;;;;;;6.30;3.90;;;8.70;43.40;;;;;;5027703;28;20762;-72
2023/01/11 18:47:23;;;;;;;12.37;4.13;;;8.70;47.50;;;;;;5034899;28;20464;-72
2023/01/11 18:49:50;;;;;;;8.97;4.00;;;8.60;46.20;;;;;;5028005;28;20185;-72
2023/01/11 18:52:17;;;;;;;7.73;3.00;;;8.60;45.30;;;;;;5027722;28;20432;-72
2023/01/11 18:54:43;;;;;;;9.70;3.23;;;8.60;45.30;;;;;;5029657;28;20479;-72
2023/01/11 18:57:09;;;;;;;12.77;3.50;;;8.50;46.80;;;;;;5028211;28;20887;-73
2023/01/11 18:59:35;;;;;;;6.47;3.17;;;8.50;47.30;;;;;;5028235;28;20970;-72
2023/01/11 19:02:24;;;;;;;12.17;2.70;;;8.50;48.00;;;;;;5025182;28;20523;-72
2023/01/11 19:04:51;;;;;;;8.80;3.20;;;8.40;46.70;;;;;;5035102;28;20434;-72
2023/01/11 19:07:18;;;;;;;6.57;2.93;;;8.40;45.90;;;;;;5030813;28;20432;-72
2023/01/11 19:09:44;;;;;;;6.20;2.80;;;8.30;43.70;;;;;;5030319;28;20412;-73
2023/01/11 19:12:10;;;;;;;5.80;2.80;;;8.30;46.70;;;;;;5027668;28;20425;-73
2023/01/11 19:14:35;;;;;;;18.70;6.67;;;8.20;48.70;;;;;;5027835;28;20571;-72
2023/01/11 19:17:03;;;;;;;35.63;12.27;;;8.20;52.00;;;;;;5028404;28;21024;-72
2023/01/11 19:19:28;;;;;;;31.43;10.73;;;8.10;54.00;;;;;;5029589;28;20216;-72
2023/01/11 19:21:54;;;;;;;23.90;8.17;;;8.10;56.00;;;;;;5028254;28;21618;-72
2023/01/11 19:24:19;;;;;;;14.43;6.00;;;8.00;56.70;;;;;;5027076;28;20644;-74
2023/01/11 19:26:45;;;;;;;12.97;4.93;;;8.00;57.70;;;;;;5025057;28;20191;-72
2023/01/11 19:29:15;;;;;;;17.13;4.37;;;8.00;55.60;;;;;;5031772;28;20526;-72
2023/01/11 19:31:41;;;;;;;11.60;4.63;;;8.10;55.90;;;;;;5026181;28;20257;-73
2023/01/11 19:34:07;;;;;;;12.73;5.23;;;8.10;55.80;;;;;;5028815;28;20420;-72
2023/01/11 19:36:32;;;;;;;9.50;4.93;;;8.00;58.40;;;;;;5028322;28;20448;-72
2023/01/11 19:38:58;;;;;;;10.80;4.37;;;8.00;56.20;;;;;;5028817;28;20276;-72
2023/01/11 19:41:23;;;;;;;5.83;3.67;;;7.90;57.90;;;;;;5028416;28;20188;-72
2023/01/11 19:43:49;;;;;;;11.40;4.30;;;7.90;58.20;;;;;;5027480;28;20192;-72
2023/01/11 19:46:14;;;;;;;12.30;3.90;;;7.80;57.60;;;;;;5031532;28;20746;-72
2023/01/11 19:48:40;;;;;;;23.53;7.87;;;7.80;59.70;;;;;;5027160;28;20170;-73
2023/01/11 19:51:07;;;;;;;18.23;7.87;;;7.80;54.80;;;;;;5030152;28;20847;-72
2023/01/11 19:53:34;;;;;;;17.77;7.20;;;7.80;53.60;;;;;;5035253;28;20174;-74
2023/01/11 19:56:07;;;;;;;12.80;5.80;;;7.80;52.30;;;;;;5029209;28;20456;-74
2023/01/11 19:58:36;;;;;;;11.83;4.60;;;7.80;51.60;;;;;;5029148;28;20985;-72
2023/01/11 20:01:09;;;;;;;10.00;3.90;;;7.80;51.30;;;;;;5020366;28;20413;-73
2023/01/11 20:03:35;;;;;;;10.40;3.77;;;7.90;48.40;;;;;;5010631;28;20927;-72
2023/01/11 20:06:07;;;;;;;8.20;3.13;;;7.90;47.10;;;;;;5027321;28;20521;-73
2023/01/11 20:08:37;;;;;;;5.60;3.20;;;7.90;48.10;;;;;;5011394;28;20366;-74
2023/01/11 20:11:07;;;;;;;11.93;3.00;;;8.00;46.10;;;;;;5026805;28;20420;-73
2023/01/11 20:13:33;;;;;;;11.00;3.50;;;8.00;45.30;;;;;;5029409;28;20752;-72
2023/01/11 20:16:07;;;;;;;8.50;2.87;;;8.10;41.30;;;;;;5028013;28;20448;-73
2023/01/11 20:18:33;;;;;;;7.70;2.73;;;8.10;37.40;;;;;;5011051;28;20420;-74
2023/01/11 20:20:58;;;;;;;8.33;2.70;;;8.10;41.30;;;;;;5026994;28;20591;-72
2023/01/11 20:23:25;;;;;;;9.80;2.90;;;8.10;38.10;;;;;;5027432;28;20264;-72
2023/01/11 20:25:57;;;;;;;6.00;2.87;;;8.10;37.70;;;;;;5028354;28;20276;-73
2023/01/11 20:28:23;;;;;;;21.80;3.37;;;8.20;37.70;;;;;;5029133;28;20424;-74
2023/01/11 20:30:49;;;;;;;10.87;3.17;;;8.10;37.40;;;;;;5027554;28;20535;-72
2023/01/11 20:33:14;;;;;;;7.80;2.50;;;8.10;37.40;;;;;;5025474;28;20550;-72
2023/01/11 20:35:40;;;;;;;17.20;3.37;;;8.10;37.40;;;;;;5024172;28;20198;-72
2023/01/11 20:38:05;;;;;;;13.10;3.13;;;8.10;37.50;;;;;;5024862;28;20255;-72
2023/01/11 20:40:31;;;;;;;8.57;2.57;;;8.10;37.40;;;;;;5030350;28;20564;-73
2023/01/11 20:42:56;;;;;;;9.77;2.97;;;8.10;37.40;;;;;;5027524;28;20434;-73
2023/01/11 20:45:22;;;;;;;10.53;2.53;;;8.10;37.50;;;;;;5024102;28;20210;-71
2023/01/11 20:47:47;;;;;;;10.70;3.10;;;8.00;37.30;;;;;;5032815;28;20601;-72
2023/01/11 20:50:13;;;;;;;14.73;3.43;;;8.00;37.20;;;;;;5030064;28;20186;-72
2023/01/11 20:52:39;;;;;;;7.83;2.97;;;8.00;37.30;;;;;;5029580;28;20185;-72
2023/01/11 20:55:05;;;;;;;10.67;2.80;;;8.00;40.00;;;;;;5030551;28;20204;-72
2023/01/11 20:57:30;;;;;;;7.63;2.67;;;7.90;37.20;;;;;;5032189;28;20528;-72
2023/01/11 20:59:56;;;;;;;14.00;3.23;;;7.90;37.20;;;;;;5030291;28;20559;-73
2023/01/11 21:02:21;;;;;;;13.50;3.80;;;7.90;37.40;;;;;;5029600;28;20182;-72
2023/01/11 21:04:47;;;;;;;9.80;3.43;;;7.90;37.20;;;;;;5031250;28;20190;-72
2023/01/11 21:07:12;;;;;;;10.60;3.47;;;7.90;37.30;;;;;;5015807;28;20170;-72
2023/01/11 21:09:38;;;;;;;18.67;5.30;;;7.90;37.30;;;;;;5031677;28;20556;-72
2023/01/11 21:12:04;;;;;;;8.20;2.70;;;7.80;37.10;;;;;;5031046;28;20506;-73
2023/01/11 21:14:29;;;;;;;7.63;3.00;;;7.80;37.10;;;;;;5031202;28;20280;-71
2023/01/11 21:16:55;;;;;;;13.10;2.80;;;7.80;37.30;;;;;;5020865;28;20174;-72
2023/01/11 21:19:21;;;;;;;8.80;2.57;;;7.80;37.10;;;;;;5029843;28;20205;-72
2023/01/11 21:21:47;;;;;;;17.30;4.23;;;7.80;37.30;;;;;;5029147;28;20331;-71
2023/01/11 21:24:14;;;;;;;12.10;3.47;;;7.80;37.20;;;;;;5039143;28;20252;-73
2023/01/11 21:26:41;;;;;;;8.80;2.70;;;7.70;39.00;;;;;;5033069;28;20170;-70
2023/01/11 21:29:09;;;;;;;7.80;2.53;;;7.70;37.00;;;;;;5030431;28;20819;-72
2023/01/11 21:31:35;;;;;;;10.13;2.50;;;7.70;37.10;;;;;;5029596;28;20440;-72
2023/01/11 21:34:02;;;;;;;12.10;2.87;;;7.70;37.10;;;;;;5021809;28;20440;-72
2023/01/11 21:36:29;;;;;;;17.20;3.07;;;7.70;37.00;;;;;;5029336;28;20449;-73
2023/01/11 21:38:55;;;;;;;12.53;2.93;;;7.70;37.00;;;;;;5029295;28;20970;-72
2023/01/11 21:44:08;;;;;;;10.07;2.50;;;7.70;37.00;;;;;;5016856;28;22199;-74
2023/01/11 21:46:33;;;;;;;14.50;3.87;;;7.70;37.00;;;;;;5030001;28;20476;-73
2023/01/11 21:48:59;;;;;;;12.17;3.07;;;7.70;37.10;;;;;;5006469;28;20768;-72
2023/01/11 21:51:28;;;;;;;10.20;3.63;;;7.70;37.10;;;;;;5024226;28;20182;-73
2023/01/11 21:53:54;;;;;;;13.07;3.87;;;7.70;37.10;;;;;;5032412;28;20804;-72
2023/01/11 21:56:20;;;;;;;13.10;3.37;;;7.60;37.00;;;;;;5029948;28;20535;-72
2023/01/11 21:58:45;;;;;;;14.00;3.30;;;7.60;37.00;;;;;;5029798;28;20426;-73
2023/01/11 22:01:12;;;;;;;8.03;2.80;;;7.70;37.30;;;;;;5025858;28;20606;-72
2023/01/11 22:03:40;;;;;;;8.67;3.20;;;7.70;37.00;;;;;;5027154;28;20181;-72
2023/01/11 22:06:06;;;;;;;9.17;3.83;;;7.70;37.10;;;;;;5031030;28;20432;-73
2023/01/11 22:08:36;;;;;;;10.33;2.70;;;7.70;37.00;;;;;;5029762;28;20487;-72
2023/01/11 22:11:04;;;;;;;9.80;3.30;;;7.70;37.00;;;;;;5023588;28;20396;-71
2023/01/11 22:13:32;;;;;;;10.77;3.20;;;7.70;37.00;;;;;;5029127;28;20437;-74
2023/01/11 22:16:05;;;;;;;16.80;3.80;;;7.60;37.00;;;;;;5029641;28;20436;-73
2023/01/11 22:18:31;;;;;;;14.60;3.30;;;7.70;37.10;;;;;;5028620;28;20459;-72
2023/01/11 22:21:04;;;;;;;7.93;3.53;;;7.70;37.00;;;;;;5029422;28;20460;-72
2023/01/11 22:23:30;;;;;;;12.30;3.07;;;7.70;37.10;;;;;;5028181;28;20923;-71
2023/01/11 22:25:55;;;;;;;12.33;5.13;;;7.70;37.00;;;;;;5028961;28;20436;-72
2023/01/11 22:28:21;;;;;;;6.43;3.10;;;7.70;37.00;;;;;;5028840;28;20253;-72